sensor_id;sensor_type;location;lat;lon;timestamp;temperature;humidity
17813;DHT22;9030;50.792;8.320;2024-03-02T00:01:04;2.30;99.90
17813;DHT22;9030;50.792;8.320;2024-03-02T00:03:31;2.10;99.90
17813;DHT22;9030;50.792;8.320;2024-03-02T00:05:59;2.00;99.90
17813;DHT22;9030;50.792;8.320;2024-03-02T00:08:25;2.00;99.90
17813;DHT22;9030;50.792;8.320;2024-03-02T00:10:57;2.00;99.90
17813;DHT22;9030;50.792;8.320;2024-03-02T00:13:25;2.00;99.90
17813;DHT22;9030;50.792;8.320;2024-03-02T00:15:53;1.90;99.90
17813;DHT22;9030;50.792;8.320;2024-03-02T00:18:23;1.90;99.90
17813;DHT22;9030;50.792;8.320;2024-03-02T00:20:53;1.90;99.90
17813;DHT22;9030;50.792;8.320;2024-03-02T00:23:20;1.80;99.90
17813;DHT22;9030;50.792;8.320;2024-03-02T00:25:49;2.00;99.90
17813;DHT22;9030;50.792;8.320;2024-03-02T00:28:20;2.30;99.90
17813;DHT22;9030;50.792;8.320;2024-03-02T00:30:59;2.50;99.90
17813;DHT22;9030;50.792;8.320;2024-03-02T00:33:27;2.50;99.90
17813;DHT22;9030;50.792;8.320;2024-03-02T00:35:54;2.40;99.90
17813;DHT22;9030;50.792;8.320;2024-03-02T00:38:22;2.40;99.90
17813;DHT22;9030;50.792;8.320;2024-03-02T00:40:49;2.40;99.90
17813;DHT22;9030;50.792;8.320;2024-03-02T00:43:44;2.30;99.90
17813;DHT22;9030;50.792;8.320;2024-03-02T00:46:15;2.00;99.90
17813;DHT22;9030;50.792;8.320;2024-03-02T00:48:53;1.80;99.90
17813;DHT22;9030;50.792;8.320;2024-03-02T00:51:21;1.80;99.90
17813;DHT22;9030;50.792;8.320;2024-03-02T00:53:49;2.00;99.90
17813;DHT22;9030;50.792;8.320;2024-03-02T00:56:16;2.40;99.90
17813;DHT22;9030;50.792;8.320;2024-03-02T00:58:43;2.50;99.90
17813;DHT22;9030;50.792;8.320;2024-03-02T01:01:10;2.50;99.90
17813;DHT22;9030;50.792;8.320;2024-03-02T01:03:38;2.50;99.90
17813;DHT22;9030;50.792;8.320;2024-03-02T01:06:05;2.50;99.90
17813;DHT22;9030;50.792;8.320;2024-03-02T01:08:33;2.50;99.90
17813;DHT22;9030;50.792;8.320;2024-03-02T01:10:59;2.20;99.90
17813;DHT22;9030;50.792;8.320;2024-03-02T01:13:26;2.10;99.90
17813;DHT22;9030;50.792;8.320;2024-03-02T01:15:53;1.90;99.90
17813;DHT22;9030;50.792;8.320;2024-03-02T01:18:19;1.70;99.90
17813;DHT22;9030;50.792;8.320;2024-03-02T01:20:49;1.70;99.90
17813;DHT22;9030;50.792;8.320;2024-03-02T01:23:17;1.60;99.90
17813;DHT22;9030;50.792;8.320;2024-03-02T01:25:44;1.60;99.90
17813;DHT22;9030;50.792;8.320;2024-03-02T01:28:11;1.50;99.90
17813;DHT22;9030;50.792;8.320;2024-03-02T01:30:38;1.60;99.90
17813;DHT22;9030;50.792;8.320;2024-03-02T01:33:05;1.50;99.90
17813;DHT22;9030;50.792;8.320;2024-03-02T01:35:32;1.40;99.90
17813;DHT22;9030;50.792;8.320;2024-03-02T01:38:00;1.50;99.90
17813;DHT22;9030;50.792;8.320;2024-03-02T01:40:27;1.50;99.90
17813;DHT22;9030;50.792;8.320;2024-03-02T01:42:54;1.50;99.90
17813;DHT22;9030;50.792;8.320;2024-03-02T01:45:21;1.60;99.90
17813;DHT22;9030;50.792;8.320;2024-03-02T01:47:48;1.60;99.90
17813;DHT22;9030;50.792;8.320;2024-03-02T01:50:15;1.60;99.90
17813;DHT22;9030;50.792;8.320;2024-03-02T01:52:41;1.60;99.90
17813;DHT22;9030;50.792;8.320;2024-03-02T01:55:10;1.70;99.90
17813;DHT22;9030;50.792;8.320;2024-03-02T01:57:37;1.60;99.90
17813;DHT22;9030;50.792;8.320;2024-03-02T02:00:05;1.80;99.90
17813;DHT22;9030;50.792;8.320;2024-03-02T02:02:35;1.80;99.90
17813;DHT22;9030;50.792;8.320;2024-03-02T02:05:02;1.70;99.90
17813;DHT22;9030;50.792;8.320;2024-03-02T02:07:29;1.60;99.90
17813;DHT22;9030;50.792;8.320;2024-03-02T02:09:55;1.50;99.90
17813;DHT22;9030;50.792;8.320;2024-03-02T02:12:24;1.40;99.90
17813;DHT22;9030;50.792;8.320;2024-03-02T02:14:51;1.40;99.90
17813;DHT22;9030;50.792;8.320;2024-03-02T02:17:17;1.40;99.90
17813;DHT22;9030;50.792;8.320;2024-03-02T02:19:44;1.30;99.90
17813;DHT22;9030;50.792;8.320;2024-03-02T02:22:12;1.30;99.90
17813;DHT22;9030;50.792;8.320;2024-03-02T02:24:40;1.30;99.90
17813;DHT22;9030;50.792;8.320;2024-03-02T02:27:07;1.20;99.90
17813;DHT22;9030;50.792;8.320;2024-03-02T02:29:33;1.20;99.90
17813;DHT22;9030;50.792;8.320;2024-03-02T02:32:00;1.20;99.90
17813;DHT22;9030;50.792;8.320;2024-03-02T02:34:27;1.10;99.90
17813;DHT22;9030;50.792;8.320;2024-03-02T02:36:54;1.10;99.90
17813;DHT22;9030;50.792;8.320;2024-03-02T02:39:22;1.00;99.90
17813;DHT22;9030;50.792;8.320;2024-03-02T02:41:49;1.00;99.90
17813;DHT22;9030;50.792;8.320;2024-03-02T02:44:16;0.90;99.90
17813;DHT22;9030;50.792;8.320;2024-03-02T02:46:43;0.90;99.90
17813;DHT22;9030;50.792;8.320;2024-03-02T02:49:09;0.90;99.90
17813;DHT22;9030;50.792;8.320;2024-03-02T02:51:36;0.90;99.90
17813;DHT22;9030;50.792;8.320;2024-03-02T02:54:03;1.00;99.90
17813;DHT22;9030;50.792;8.320;2024-03-02T02:56:30;1.00;99.90
17813;DHT22;9030;50.792;8.320;2024-03-02T02:58:57;1.10;99.90
17813;DHT22;9030;50.792;8.320;2024-03-02T03:01:24;1.10;99.90
17813;DHT22;9030;50.792;8.320;2024-03-02T03:03:51;1.20;99.90
17813;DHT22;9030;50.792;8.320;2024-03-02T03:06:17;1.20;99.90
17813;DHT22;9030;50.792;8.320;2024-03-02T03:08:44;1.10;99.90
17813;DHT22;9030;50.792;8.320;2024-03-02T03:11:10;1.00;99.90
17813;DHT22;9030;50.792;8.320;2024-03-02T03:13:38;1.10;99.90
17813;DHT22;9030;50.792;8.320;2024-03-02T03:16:05;1.10;99.90
17813;DHT22;9030;50.792;8.320;2024-03-02T03:18:32;1.10;99.90
17813;DHT22;9030;50.792;8.320;2024-03-02T03:20:59;1.10;99.90
17813;DHT22;9030;50.792;8.320;2024-03-02T03:23:25;1.20;99.90
17813;DHT22;9030;50.792;8.320;2024-03-02T03:25:52;1.10;99.90
17813;DHT22;9030;50.792;8.320;2024-03-02T03:28:19;1.10;99.90
17813;DHT22;9030;50.792;8.320;2024-03-02T03:30:47;1.00;99.90
17813;DHT22;9030;50.792;8.320;2024-03-02T03:33:13;1.00;99.90
17813;DHT22;9030;50.792;8.320;2024-03-02T03:35:40;1.10;99.90
17813;DHT22;9030;50.792;8.320;2024-03-02T03:38:07;1.10;99.90
17813;DHT22;9030;50.792;8.320;2024-03-02T03:40:33;1.00;99.90
17813;DHT22;9030;50.792;8.320;2024-03-02T03:43:00;1.00;99.90
17813;DHT22;9030;50.792;8.320;2024-03-02T03:45:27;0.90;99.90
17813;DHT22;9030;50.792;8.320;2024-03-02T03:47:57;0.80;99.90
17813;DHT22;9030;50.792;8.320;2024-03-02T03:50:24;0.80;99.90
17813;DHT22;9030;50.792;8.320;2024-03-02T03:52:50;0.70;99.90
17813;DHT22;9030;50.792;8.320;2024-03-02T03:55:17;0.70;99.90
17813;DHT22;9030;50.792;8.320;2024-03-02T03:57:43;0.70;99.90
17813;DHT22;9030;50.792;8.320;2024-03-02T04:00:11;0.70;99.90
17813;DHT22;9030;50.792;8.320;2024-03-02T04:02:38;0.70;99.90
17813;DHT22;9030;50.792;8.320;2024-03-02T04:05:07;0.70;99.90
17813;DHT22;9030;50.792;8.320;2024-03-02T04:07:36;0.60;99.90
17813;DHT22;9030;50.792;8.320;2024-03-02T04:10:07;0.60;99.90
17813;DHT22;9030;50.792;8.320;2024-03-02T04:12:34;0.60;99.90
17813;DHT22;9030;50.792;8.320;2024-03-02T04:15:01;0.50;99.90
17813;DHT22;9030;50.792;8.320;2024-03-02T04:17:31;0.50;99.90
17813;DHT22;9030;50.792;8.320;2024-03-02T04:19:57;0.40;99.90
17813;DHT22;9030;50.792;8.320;2024-03-02T04:22:26;0.40;99.90
17813;DHT22;9030;50.792;8.320;2024-03-02T04:24:53;0.30;99.90
17813;DHT22;9030;50.792;8.320;2024-03-02T04:27:19;0.40;99.90
17813;DHT22;9030;50.792;8.320;2024-03-02T04:29:46;0.40;99.90
17813;DHT22;9030;50.792;8.320;2024-03-02T04:32:13;0.40;99.90
17813;DHT22;9030;50.792;8.320;2024-03-02T04:34:39;0.30;99.90
17813;DHT22;9030;50.792;8.320;2024-03-02T04:37:06;0.30;99.90
17813;DHT22;9030;50.792;8.320;2024-03-02T04:39:35;0.30;99.90
17813;DHT22;9030;50.792;8.320;2024-03-02T04:42:02;0.30;99.90
17813;DHT22;9030;50.792;8.320;2024-03-02T04:44:29;0.20;99.90
17813;DHT22;9030;50.792;8.320;2024-03-02T04:46:56;0.20;99.90
17813;DHT22;9030;50.792;8.320;2024-03-02T04:49:23;0.30;99.90
17813;DHT22;9030;50.792;8.320;2024-03-02T04:51:50;0.20;99.90
17813;DHT22;9030;50.792;8.320;2024-03-02T04:54:17;0.20;99.90
17813;DHT22;9030;50.792;8.320;2024-03-02T04:56:44;0.10;99.90
17813;DHT22;9030;50.792;8.320;2024-03-02T04:59:15;0.10;99.90
17813;DHT22;9030;50.792;8.320;2024-03-02T05:01:42;0.20;99.90
17813;DHT22;9030;50.792;8.320;2024-03-02T05:04:09;0.20;99.90
17813;DHT22;9030;50.792;8.320;2024-03-02T05:06:37;0.10;99.90
17813;DHT22;9030;50.792;8.320;2024-03-02T05:09:04;0.10;99.90
17813;DHT22;9030;50.792;8.320;2024-03-02T05:11:31;0.10;99.90
17813;DHT22;9030;50.792;8.320;2024-03-02T05:14:20;0.20;99.90
17813;DHT22;9030;50.792;8.320;2024-03-02T05:16:45;0.10;99.90
17813;DHT22;9030;50.792;8.320;2024-03-02T05:19:12;0.00;99.90
17813;DHT22;9030;50.792;8.320;2024-03-02T05:21:38;0.20;99.90
17813;DHT22;9030;50.792;8.320;2024-03-02T05:24:05;0.10;99.90
17813;DHT22;9030;50.792;8.320;2024-03-02T05:26:32;-0.10;99.90
17813;DHT22;9030;50.792;8.320;2024-03-02T05:28:59;-0.10;99.90
17813;DHT22;9030;50.792;8.320;2024-03-02T05:31:27;-0.10;99.90
17813;DHT22;9030;50.792;8.320;2024-03-02T05:33:53;-0.20;99.90
17813;DHT22;9030;50.792;8.320;2024-03-02T05:36:20;0.00;99.90
17813;DHT22;9030;50.792;8.320;2024-03-02T05:38:47;0.00;99.90
17813;DHT22;9030;50.792;8.320;2024-03-02T05:41:13;-0.10;99.90
17813;DHT22;9030;50.792;8.320;2024-03-02T05:43:40;-0.10;99.90
17813;DHT22;9030;50.792;8.320;2024-03-02T05:46:07;-0.20;99.90
17813;DHT22;9030;50.792;8.320;2024-03-02T05:48:35;-0.20;99.90
17813;DHT22;9030;50.792;8.320;2024-03-02T05:51:01;-0.20;99.90
17813;DHT22;9030;50.792;8.320;2024-03-02T05:53:28;-0.20;99.90
17813;DHT22;9030;50.792;8.320;2024-03-02T05:55:55;-0.20;99.90
17813;DHT22;9030;50.792;8.320;2024-03-02T05:58:22;-0.20;99.90
17813;DHT22;9030;50.792;8.320;2024-03-02T06:00:59;-0.20;99.90
17813;DHT22;9030;50.792;8.320;2024-03-02T06:03:25;-0.20;99.90
17813;DHT22;9030;50.792;8.320;2024-03-02T06:05:55;-0.20;99.90
17813;DHT22;9030;50.792;8.320;2024-03-02T06:08:21;-0.10;99.90
17813;DHT22;9030;50.792;8.320;2024-03-02T06:10:48;-0.10;99.90
17813;DHT22;9030;50.792;8.320;2024-03-02T06:13:15;-0.10;99.90
17813;DHT22;9030;50.792;8.320;2024-03-02T06:15:41;-0.10;99.90
17813;DHT22;9030;50.792;8.320;2024-03-02T06:18:08;0.00;99.90
17813;DHT22;9030;50.792;8.320;2024-03-02T06:20:35;0.00;99.90
17813;DHT22;9030;50.792;8.320;2024-03-02T06:23:04;0.10;99.90
17813;DHT22;9030;50.792;8.320;2024-03-02T06:25:30;0.10;99.90
17813;DHT22;9030;50.792;8.320;2024-03-02T06:27:57;0.10;99.90
17813;DHT22;9030;50.792;8.320;2024-03-02T06:30:24;0.10;99.90
17813;DHT22;9030;50.792;8.320;2024-03-02T06:32:50;0.20;99.90
17813;DHT22;9030;50.792;8.320;2024-03-02T06:35:17;0.20;99.90
17813;DHT22;9030;50.792;8.320;2024-03-02T06:37:44;0.30;99.90
17813;DHT22;9030;50.792;8.320;2024-03-02T06:40:12;0.30;99.90
17813;DHT22;9030;50.792;8.320;2024-03-02T06:42:38;0.30;99.90
17813;DHT22;9030;50.792;8.320;2024-03-02T06:45:06;0.30;99.90
17813;DHT22;9030;50.792;8.320;2024-03-02T06:47:32;0.30;99.90
17813;DHT22;9030;50.792;8.320;2024-03-02T06:50:09;0.30;99.90
17813;DHT22;9030;50.792;8.320;2024-03-02T06:52:47;0.30;99.90
17813;DHT22;9030;50.792;8.320;2024-03-02T06:55:15;0.40;99.90
17813;DHT22;9030;50.792;8.320;2024-03-02T06:57:42;0.50;99.90
17813;DHT22;9030;50.792;8.320;2024-03-02T07:00:09;0.60;99.90
17813;DHT22;9030;50.792;8.320;2024-03-02T07:02:36;0.80;99.90
17813;DHT22;9030;50.792;8.320;2024-03-02T07:05:03;0.90;99.90
17813;DHT22;9030;50.792;8.320;2024-03-02T07:07:30;0.80;99.90
17813;DHT22;9030;50.792;8.320;2024-03-02T07:09:57;0.70;99.90
17813;DHT22;9030;50.792;8.320;2024-03-02T07:12:25;0.80;99.90
17813;DHT22;9030;50.792;8.320;2024-03-02T07:14:51;0.70;99.90
17813;DHT22;9030;50.792;8.320;2024-03-02T07:17:36;0.80;99.90
17813;DHT22;9030;50.792;8.320;2024-03-02T07:20:04;0.80;99.90
17813;DHT22;9030;50.792;8.320;2024-03-02T07:22:32;0.90;99.90
17813;DHT22;9030;50.792;8.320;2024-03-02T07:24:58;1.00;99.90
17813;DHT22;9030;50.792;8.320;2024-03-02T07:27:26;1.10;99.90
17813;DHT22;9030;50.792;8.320;2024-03-02T07:29:53;1.30;99.90
17813;DHT22;9030;50.792;8.320;2024-03-02T07:32:20;1.60;99.90
17813;DHT22;9030;50.792;8.320;2024-03-02T07:34:46;1.70;99.90
17813;DHT22;9030;50.792;8.320;2024-03-02T07:37:13;1.60;99.90
17813;DHT22;9030;50.792;8.320;2024-03-02T07:39:39;1.60;99.90
17813;DHT22;9030;50.792;8.320;2024-03-02T07:42:06;1.70;99.90
17813;DHT22;9030;50.792;8.320;2024-03-02T07:44:34;1.80;99.90
17813;DHT22;9030;50.792;8.320;2024-03-02T07:47:01;1.80;99.90
17813;DHT22;9030;50.792;8.320;2024-03-02T07:49:28;1.90;99.90
17813;DHT22;9030;50.792;8.320;2024-03-02T07:51:55;2.00;99.90
17813;DHT22;9030;50.792;8.320;2024-03-02T07:54:21;2.00;99.90
17813;DHT22;9030;50.792;8.320;2024-03-02T07:56:48;2.00;99.90
17813;DHT22;9030;50.792;8.320;2024-03-02T07:59:15;2.00;99.90
17813;DHT22;9030;50.792;8.320;2024-03-02T08:01:43;2.10;99.90
17813;DHT22;9030;50.792;8.320;2024-03-02T08:04:10;2.30;99.90
17813;DHT22;9030;50.792;8.320;2024-03-02T08:06:36;2.50;99.90
17813;DHT22;9030;50.792;8.320;2024-03-02T08:09:03;2.70;99.90
17813;DHT22;9030;50.792;8.320;2024-03-02T08:11:35;3.00;99.90
17813;DHT22;9030;50.792;8.320;2024-03-02T08:14:02;3.30;99.90
17813;DHT22;9030;50.792;8.320;2024-03-02T08:16:29;3.40;99.90
17813;DHT22;9030;50.792;8.320;2024-03-02T08:18:57;3.50;99.90
17813;DHT22;9030;50.792;8.320;2024-03-02T08:21:24;3.40;99.90
17813;DHT22;9030;50.792;8.320;2024-03-02T08:23:51;3.60;99.90
17813;DHT22;9030;50.792;8.320;2024-03-02T08:26:18;3.60;99.90
17813;DHT22;9030;50.792;8.320;2024-03-02T08:28:44;3.50;99.90
17813;DHT22;9030;50.792;8.320;2024-03-02T08:31:12;3.50;99.90
17813;DHT22;9030;50.792;8.320;2024-03-02T08:33:38;3.60;99.90
17813;DHT22;9030;50.792;8.320;2024-03-02T08:36:08;3.70;99.90
17813;DHT22;9030;50.792;8.320;2024-03-02T08:38:35;3.90;99.90
17813;DHT22;9030;50.792;8.320;2024-03-02T08:41:02;4.00;99.90
17813;DHT22;9030;50.792;8.320;2024-03-02T08:43:29;4.20;99.90
17813;DHT22;9030;50.792;8.320;2024-03-02T08:45:56;4.30;99.90
17813;DHT22;9030;50.792;8.320;2024-03-02T08:48:22;4.50;99.90
17813;DHT22;9030;50.792;8.320;2024-03-02T08:50:49;4.70;99.90
17813;DHT22;9030;50.792;8.320;2024-03-02T08:53:17;5.10;99.90
17813;DHT22;9030;50.792;8.320;2024-03-02T08:55:45;5.40;99.90
17813;DHT22;9030;50.792;8.320;2024-03-02T08:58:12;5.90;99.90
17813;DHT22;9030;50.792;8.320;2024-03-02T09:00:38;6.10;99.90
17813;DHT22;9030;50.792;8.320;2024-03-02T09:03:05;6.50;99.90
17813;DHT22;9030;50.792;8.320;2024-03-02T09:05:32;7.20;99.90
17813;DHT22;9030;50.792;8.320;2024-03-02T09:07:59;7.40;99.90
17813;DHT22;9030;50.792;8.320;2024-03-02T09:10:26;7.80;99.90
17813;DHT22;9030;50.792;8.320;2024-03-02T09:12:53;8.20;99.90
17813;DHT22;9030;50.792;8.320;2024-03-02T09:15:20;8.60;99.90
17813;DHT22;9030;50.792;8.320;2024-03-02T09:17:46;9.10;99.90
17813;DHT22;9030;50.792;8.320;2024-03-02T09:20:13;9.20;99.90
17813;DHT22;9030;50.792;8.320;2024-03-02T09:22:40;9.30;99.90
17813;DHT22;9030;50.792;8.320;2024-03-02T09:25:07;9.80;99.90
17813;DHT22;9030;50.792;8.320;2024-03-02T09:27:37;10.00;99.90
17813;DHT22;9030;50.792;8.320;2024-03-02T09:30:06;10.10;99.90
17813;DHT22;9030;50.792;8.320;2024-03-02T09:32:34;10.10;99.90
17813;DHT22;9030;50.792;8.320;2024-03-02T09:35:01;10.30;99.90
17813;DHT22;9030;50.792;8.320;2024-03-02T09:37:27;10.30;99.90
17813;DHT22;9030;50.792;8.320;2024-03-02T09:42:20;10.30;99.90
17813;DHT22;9030;50.792;8.320;2024-03-02T09:44:47;10.50;99.90
17813;DHT22;9030;50.792;8.320;2024-03-02T09:47:14;10.60;99.90
17813;DHT22;9030;50.792;8.320;2024-03-02T09:49:41;10.20;99.90
17813;DHT22;9030;50.792;8.320;2024-03-02T09:52:07;10.00;99.90
17813;DHT22;9030;50.792;8.320;2024-03-02T09:54:34;10.10;99.90
17813;DHT22;9030;50.792;8.320;2024-03-02T09:57:02;10.10;99.90
17813;DHT22;9030;50.792;8.320;2024-03-02T09:59:30;10.50;99.90
17813;DHT22;9030;50.792;8.320;2024-03-02T10:01:58;10.90;99.90
17813;DHT22;9030;50.792;8.320;2024-03-02T10:04:25;11.30;99.90
17813;DHT22;9030;50.792;8.320;2024-03-02T10:07:09;11.00;99.90
17813;DHT22;9030;50.792;8.320;2024-03-02T10:09:36;10.60;99.90
17813;DHT22;9030;50.792;8.320;2024-03-02T10:12:04;10.40;99.90
17813;DHT22;9030;50.792;8.320;2024-03-02T10:14:33;10.40;99.90
17813;DHT22;9030;50.792;8.320;2024-03-02T10:17:02;10.30;99.90
17813;DHT22;9030;50.792;8.320;2024-03-02T10:19:29;10.30;99.90
17813;DHT22;9030;50.792;8.320;2024-03-02T10:21:59;10.50;99.90
17813;DHT22;9030;50.792;8.320;2024-03-02T10:24:26;10.70;99.90
17813;DHT22;9030;50.792;8.320;2024-03-02T10:26:53;10.50;99.90
17813;DHT22;9030;50.792;8.320;2024-03-02T10:29:20;10.60;99.90
17813;DHT22;9030;50.792;8.320;2024-03-02T10:31:48;11.20;99.90
17813;DHT22;9030;50.792;8.320;2024-03-02T10:34:15;11.20;99.90
17813;DHT22;9030;50.792;8.320;2024-03-02T10:36:43;11.00;99.90
17813;DHT22;9030;50.792;8.320;2024-03-02T10:39:13;10.80;99.90
17813;DHT22;9030;50.792;8.320;2024-03-02T10:41:40;10.80;99.90
17813;DHT22;9030;50.792;8.320;2024-03-02T10:44:08;11.10;99.90
17813;DHT22;9030;50.792;8.320;2024-03-02T10:46:36;11.00;99.90
17813;DHT22;9030;50.792;8.320;2024-03-02T10:49:05;10.70;99.90
17813;DHT22;9030;50.792;8.320;2024-03-02T10:51:33;11.30;99.90
17813;DHT22;9030;50.792;8.320;2024-03-02T10:54:03;11.60;99.90
17813;DHT22;9030;50.792;8.320;2024-03-02T10:56:31;11.90;99.90
17813;DHT22;9030;50.792;8.320;2024-03-02T10:59:03;12.30;99.90
17813;DHT22;9030;50.792;8.320;2024-03-02T11:01:32;12.50;99.90
17813;DHT22;9030;50.792;8.320;2024-03-02T11:03:59;12.80;99.90
17813;DHT22;9030;50.792;8.320;2024-03-02T11:06:30;13.10;99.90
17813;DHT22;9030;50.792;8.320;2024-03-02T11:09:04;13.10;99.90
17813;DHT22;9030;50.792;8.320;2024-03-02T11:11:36;12.30;99.90
17813;DHT22;9030;50.792;8.320;2024-03-02T11:14:04;12.20;99.90
17813;DHT22;9030;50.792;8.320;2024-03-02T11:16:35;12.30;99.90
17813;DHT22;9030;50.792;8.320;2024-03-02T11:19:04;12.10;99.90
17813;DHT22;9030;50.792;8.320;2024-03-02T11:21:34;11.70;99.90
17813;DHT22;9030;50.792;8.320;2024-03-02T11:24:28;11.80;99.90
17813;DHT22;9030;50.792;8.320;2024-03-02T11:26:58;11.90;99.90
17813;DHT22;9030;50.792;8.320;2024-03-02T11:29:43;11.80;99.90
17813;DHT22;9030;50.792;8.320;2024-03-02T11:32:17;11.70;99.90
17813;DHT22;9030;50.792;8.320;2024-03-02T11:34:46;11.50;99.90
17813;DHT22;9030;50.792;8.320;2024-03-02T11:37:15;11.60;99.90
17813;DHT22;9030;50.792;8.320;2024-03-02T11:39:43;11.80;99.90
17813;DHT22;9030;50.792;8.320;2024-03-02T11:42:11;11.50;99.90
17813;DHT22;9030;50.792;8.320;2024-03-02T11:44:39;11.50;99.90
17813;DHT22;9030;50.792;8.320;2024-03-02T11:47:08;11.90;99.90
17813;DHT22;9030;50.792;8.320;2024-03-02T11:49:37;11.60;99.90
17813;DHT22;9030;50.792;8.320;2024-03-02T11:52:06;11.70;99.90
17813;DHT22;9030;50.792;8.320;2024-03-02T11:54:36;11.90;99.90
17813;DHT22;9030;50.792;8.320;2024-03-02T11:57:05;12.10;99.90
17813;DHT22;9030;50.792;8.320;2024-03-02T11:59:32;12.10;99.90
17813;DHT22;9030;50.792;8.320;2024-03-02T12:01:59;12.50;99.90
17813;DHT22;9030;50.792;8.320;2024-03-02T12:04:26;13.10;99.90
17813;DHT22;9030;50.792;8.320;2024-03-02T12:06:57;13.20;99.90
17813;DHT22;9030;50.792;8.320;2024-03-02T12:09:26;13.20;99.90
17813;DHT22;9030;50.792;8.320;2024-03-02T12:12:05;13.30;99.90
17813;DHT22;9030;50.792;8.320;2024-03-02T12:14:32;13.10;99.90
17813;DHT22;9030;50.792;8.320;2024-03-02T12:16:59;12.50;99.90
17813;DHT22;9030;50.792;8.320;2024-03-02T12:19:26;12.40;99.90
17813;DHT22;9030;50.792;8.320;2024-03-02T12:21:55;12.20;99.90
17813;DHT22;9030;50.792;8.320;2024-03-02T12:24:23;12.30;99.90
17813;DHT22;9030;50.792;8.320;2024-03-02T12:26:50;12.60;99.90
17813;DHT22;9030;50.792;8.320;2024-03-02T12:29:20;12.40;99.90
17813;DHT22;9030;50.792;8.320;2024-03-02T12:31:48;12.40;99.90
17813;DHT22;9030;50.792;8.320;2024-03-02T12:34:16;12.70;99.90
17813;DHT22;9030;50.792;8.320;2024-03-02T12:36:44;12.60;99.90
17813;DHT22;9030;50.792;8.320;2024-03-02T12:39:13;12.50;99.90
17813;DHT22;9030;50.792;8.320;2024-03-02T12:41:39;12.50;99.90
17813;DHT22;9030;50.792;8.320;2024-03-02T12:44:06;12.70;99.90
17813;DHT22;9030;50.792;8.320;2024-03-02T12:46:34;12.60;99.90
17813;DHT22;9030;50.792;8.320;2024-03-02T12:49:07;12.20;99.90
17813;DHT22;9030;50.792;8.320;2024-03-02T12:51:35;12.10;99.90
17813;DHT22;9030;50.792;8.320;2024-03-02T12:54:02;11.90;99.90
17813;DHT22;9030;50.792;8.320;2024-03-02T12:56:30;12.00;99.90
17813;DHT22;9030;50.792;8.320;2024-03-02T12:58:58;12.30;99.90
17813;DHT22;9030;50.792;8.320;2024-03-02T13:01:25;12.20;99.90
17813;DHT22;9030;50.792;8.320;2024-03-02T13:03:54;12.30;99.90
17813;DHT22;9030;50.792;8.320;2024-03-02T13:06:22;12.30;99.90
17813;DHT22;9030;50.792;8.320;2024-03-02T13:08:49;12.30;99.90
17813;DHT22;9030;50.792;8.320;2024-03-02T13:11:18;12.30;99.90
17813;DHT22;9030;50.792;8.320;2024-03-02T13:13:45;12.30;99.90
17813;DHT22;9030;50.792;8.320;2024-03-02T13:16:12;12.30;99.90
17813;DHT22;9030;50.792;8.320;2024-03-02T13:18:41;12.20;99.90
17813;DHT22;9030;50.792;8.320;2024-03-02T13:21:09;12.00;99.90
17813;DHT22;9030;50.792;8.320;2024-03-02T13:23:36;12.00;99.90
17813;DHT22;9030;50.792;8.320;2024-03-02T13:26:03;12.10;99.90
17813;DHT22;9030;50.792;8.320;2024-03-02T13:28:30;12.20;99.90
17813;DHT22;9030;50.792;8.320;2024-03-02T13:30:56;12.30;99.90
17813;DHT22;9030;50.792;8.320;2024-03-02T13:33:23;12.20;99.90
17813;DHT22;9030;50.792;8.320;2024-03-02T13:35:50;12.30;99.90
17813;DHT22;9030;50.792;8.320;2024-03-02T13:38:19;12.30;99.90
17813;DHT22;9030;50.792;8.320;2024-03-02T13:40:46;12.30;99.90
17813;DHT22;9030;50.792;8.320;2024-03-02T13:43:14;12.20;99.90
17813;DHT22;9030;50.792;8.320;2024-03-02T13:45:41;12.30;99.90
17813;DHT22;9030;50.792;8.320;2024-03-02T13:48:08;12.30;99.90
17813;DHT22;9030;50.792;8.320;2024-03-02T13:50:35;12.50;99.90
17813;DHT22;9030;50.792;8.320;2024-03-02T13:53:02;12.60;99.90
17813;DHT22;9030;50.792;8.320;2024-03-02T13:55:31;12.70;99.90
17813;DHT22;9030;50.792;8.320;2024-03-02T13:57:58;12.60;99.90
17813;DHT22;9030;50.792;8.320;2024-03-02T14:00:24;12.50;99.90
17813;DHT22;9030;50.792;8.320;2024-03-02T14:02:51;12.30;99.90
17813;DHT22;9030;50.792;8.320;2024-03-02T14:05:18;12.20;99.90
17813;DHT22;9030;50.792;8.320;2024-03-02T14:07:45;12.10;99.90
17813;DHT22;9030;50.792;8.320;2024-03-02T14:10:11;12.30;99.90
17813;DHT22;9030;50.792;8.320;2024-03-02T14:12:41;12.40;99.90
17813;DHT22;9030;50.792;8.320;2024-03-02T14:15:08;12.20;99.90
17813;DHT22;9030;50.792;8.320;2024-03-02T14:17:34;12.10;99.90
17813;DHT22;9030;50.792;8.320;2024-03-02T14:20:01;12.20;99.90
17813;DHT22;9030;50.792;8.320;2024-03-02T14:22:30;12.10;99.90
17813;DHT22;9030;50.792;8.320;2024-03-02T14:24:57;12.20;99.90
17813;DHT22;9030;50.792;8.320;2024-03-02T14:27:23;12.20;99.90
17813;DHT22;9030;50.792;8.320;2024-03-02T14:29:52;12.00;99.90
17813;DHT22;9030;50.792;8.320;2024-03-02T14:32:18;11.80;99.90
17813;DHT22;9030;50.792;8.320;2024-03-02T14:34:45;11.80;99.90
17813;DHT22;9030;50.792;8.320;2024-03-02T14:37:12;11.90;99.90
17813;DHT22;9030;50.792;8.320;2024-03-02T14:39:39;11.80;99.90
17813;DHT22;9030;50.792;8.320;2024-03-02T14:42:06;11.80;99.90
17813;DHT22;9030;50.792;8.320;2024-03-02T14:44:33;11.70;99.90
17813;DHT22;9030;50.792;8.320;2024-03-02T14:47:01;11.70;99.90
17813;DHT22;9030;50.792;8.320;2024-03-02T14:49:29;11.70;99.90
17813;DHT22;9030;50.792;8.320;2024-03-02T14:51:56;11.70;99.90
17813;DHT22;9030;50.792;8.320;2024-03-02T14:54:23;11.70;99.90
17813;DHT22;9030;50.792;8.320;2024-03-02T14:56:49;11.70;99.90
17813;DHT22;9030;50.792;8.320;2024-03-02T14:59:17;11.70;99.90
17813;DHT22;9030;50.792;8.320;2024-03-02T15:01:43;11.80;99.90
17813;DHT22;9030;50.792;8.320;2024-03-02T15:04:11;11.80;99.90
17813;DHT22;9030;50.792;8.320;2024-03-02T15:06:39;11.90;99.90
17813;DHT22;9030;50.792;8.320;2024-03-02T15:09:06;11.90;99.90
17813;DHT22;9030;50.792;8.320;2024-03-02T15:11:33;11.90;99.90
17813;DHT22;9030;50.792;8.320;2024-03-02T15:14:00;11.90;99.90
17813;DHT22;9030;50.792;8.320;2024-03-02T15:16:27;11.80;99.90
17813;DHT22;9030;50.792;8.320;2024-03-02T15:18:53;11.80;99.90
17813;DHT22;9030;50.792;8.320;2024-03-02T15:21:21;11.80;99.90
17813;DHT22;9030;50.792;8.320;2024-03-02T15:23:48;11.80;99.90
17813;DHT22;9030;50.792;8.320;2024-03-02T15:26:15;11.70;99.90
17813;DHT22;9030;50.792;8.320;2024-03-02T15:28:41;11.70;99.90
17813;DHT22;9030;50.792;8.320;2024-03-02T15:31:08;11.60;99.90
17813;DHT22;9030;50.792;8.320;2024-03-02T15:33:35;11.60;99.90
17813;DHT22;9030;50.792;8.320;2024-03-02T15:36:01;11.60;99.90
17813;DHT22;9030;50.792;8.320;2024-03-02T15:38:30;11.50;99.90
17813;DHT22;9030;50.792;8.320;2024-03-02T15:40:57;11.40;99.90
17813;DHT22;9030;50.792;8.320;2024-03-02T15:43:24;11.40;99.90
17813;DHT22;9030;50.792;8.320;2024-03-02T15:45:51;11.40;99.90
17813;DHT22;9030;50.792;8.320;2024-03-02T15:48:17;11.40;99.90
17813;DHT22;9030;50.792;8.320;2024-03-02T15:50:44;11.40;99.90
17813;DHT22;9030;50.792;8.320;2024-03-02T15:53:11;11.40;99.90
17813;DHT22;9030;50.792;8.320;2024-03-02T15:55:40;11.40;99.90
17813;DHT22;9030;50.792;8.320;2024-03-02T15:58:07;11.30;99.90
17813;DHT22;9030;50.792;8.320;2024-03-02T16:00:34;11.20;99.90